Oxon Hill, MD

11:33 AM EDT on August 30, 2014 (GMT -0400)
Washington | Change Station
CLOSE
Current Station
Airport
Location: Washington,
Elevation: 13 ft
Nearby Weather Stations

Elev 13 ft 38.85 °N, 77.03 °W | Updated 41 minutes ago

Overcast
Overcast
77 °F
Feels Like 77 °F
N
6
Wind Variable Wind from South

Today
High -- | Low -- °F
--% Chance of Precip.
Yesterday
High -- | Low -- °F
Precip. -- in
6:35 AM 7:41 PM
Waxing Crescent, 22% visible
Pressure 30.25 in
Visibility 10.0 miles
Clouds Overcast 3100 ft
Dew Point 63 °F
Humidity 62%
Rainfall 0.00 in
Snow Depth Not available.
UV 2 out of 12
Pollen 9.50 out of 12
Air Quality Not available.
Flu Activity Not available.
METAR KDCA 301452Z 18005KT 10SM OVC031 25/17 A3024 RMK AO2 SLP241 T02500172 53002

More Conditions Fewer Conditions

Pressure 30.25 in
Visibility 10.0 miles
Clouds Overcast 3100 ft
Dew Point 63 °F
Humidity 62%
Rainfall 0.00 in
Snow Depth Not available.
UV 2 out of 12
Pollen 9.50 out of 12
Air Quality Not available.
Flu Activity Not available.
METAR KDCA 301452Z 18005KT 10SM OVC031 25/17 A3024 RMK AO2 SLP241 T02500172 53002

More Conditions Fewer Conditions

10-Day Weather Forecast

Almanac

Astronomy

Aug. 30, 2014 Rise Set
Actual Time 6:35 AM EDT 7:41 PM EDT
Civil Twilight 6:07 AM EDT 8:08 PM EDT
Nautical Twilight 5:35 AM EDT 8:41 PM EDT
Astronomical Twilight 5:01 AM EDT 9:15 PM EDT
Moon 11:17 AM EDT 10:17 PM EDT
Length of Visible Light 14h 00m
Length of Day
13h 06m
Tomorrow will be 2m 24s shorter.
Waxing Crescent, 22% of the Moon is Illuminated
Today
Waxing Crescent
Sep 2
First Quarter
Sep 8
Full
Sep 15
Last Quarter
Sep 24
New

Today's Extremes

State Highs State Lows

Community

WunderPhotos

Upload Photos

1,748,551 photos uploaded!

WunderBlogs® & News

Nearby

Snow Depth

Station Depth Elevation
No new snow has been reported.

Earthquake Activity

City Distance Mag. Time & Date
No recent earthquake activity has been reported nearby.
Minimum magnitude displayed is 2.5.

Coastal Water Temperatures

Place Temperature
Washington, DC 79.0 °F
Baltimore, MD 79.0 °F
Solomons Island, MD 78.1 °F

Nearby Weather Stations